Time;durP1;ratioP1;P1;durP2;ratioP2;P2;SDS_P1;SDS_P2;PMS_P1;PMS_P2;Temp;Humidity;BMP_temperature;BMP_pressure;BME280_temperature;BME280_humidity;BME280_pressure;Samples;Min_cycle;Max_cycle;Signal;HPM_P1;HPM_P2
2021/01/05 00:00:11;;;;;;;18.97;13.83;;;3.30;99.90;;;;;;5056222;28;20579;-71
2021/01/05 00:02:36;;;;;;;19.80;14.90;;;3.30;99.90;;;;;;5056275;28;20432;-71
2021/01/05 00:05:02;;;;;;;18.60;14.13;;;3.30;99.90;;;;;;5055885;28;20409;-72
2021/01/05 00:07:28;;;;;;;17.50;13.53;;;3.40;99.90;;;;;;5054400;28;20194;-71
2021/01/05 00:09:53;;;;;;;20.00;14.87;;;3.30;99.90;;;;;;5056313;28;20733;-71
2021/01/05 00:12:19;;;;;;;19.17;14.37;;;3.40;99.90;;;;;;5054687;28;20170;-71
2021/01/05 00:14:46;;;;;;;19.80;13.70;;;3.30;99.90;;;;;;5055643;28;20180;-70
2021/01/05 00:17:17;;;;;;;21.03;14.63;;;3.30;99.90;;;;;;5055757;28;20572;-72
2021/01/05 00:19:43;;;;;;;22.20;14.97;;;3.20;99.90;;;;;;5055972;28;20446;-70
2021/01/05 00:22:08;;;;;;;22.77;14.80;;;3.20;99.90;;;;;;5055789;28;20794;-72
2021/01/05 00:24:35;;;;;;;20.90;14.37;;;3.20;99.90;;;;;;5055973;28;20478;-72
2021/01/05 00:27:01;;;;;;;20.60;13.93;;;3.20;99.90;;;;;;5055380;28;20215;-72
2021/01/05 00:29:27;;;;;;;22.50;14.83;;;3.20;99.90;;;;;;5055684;28;20419;-72
2021/01/05 00:32:18;;;;;;;21.23;15.00;;;3.10;99.90;;;;;;5055606;28;20505;-72
2021/01/05 00:34:45;;;;;;;21.10;14.67;;;3.10;99.90;;;;;;5055085;28;20197;-70
2021/01/05 00:37:13;;;;;;;23.67;15.03;;;3.20;99.90;;;;;;5055323;28;20899;-70
2021/01/05 00:39:38;;;;;;;17.50;12.80;;;3.10;99.90;;;;;;5055156;28;20461;-71
2021/01/05 00:42:04;;;;;;;20.03;12.87;;;3.00;99.90;;;;;;5055433;28;20397;-71
2021/01/05 00:44:30;;;;;;;22.10;14.80;;;3.00;99.90;;;;;;5055260;28;20633;-71
2021/01/05 00:46:56;;;;;;;20.60;14.40;;;3.10;99.90;;;;;;5055593;28;20454;-71
2021/01/05 00:49:22;;;;;;;22.00;15.73;;;3.10;99.90;;;;;;5055144;28;20201;-71
2021/01/05 00:51:47;;;;;;;21.00;14.07;;;3.20;99.90;;;;;;5055034;28;20505;-71
2021/01/05 00:54:13;;;;;;;21.00;14.20;;;3.30;99.90;;;;;;5055036;28;20173;-71
2021/01/05 00:56:38;;;;;;;21.50;14.43;;;3.40;99.90;;;;;;5054891;28;20187;-71
2021/01/05 00:59:05;;;;;;;20.03;14.07;;;3.20;99.90;;;;;;5054579;28;20198;-71
2021/01/05 01:01:30;;;;;;;22.13;14.10;;;3.30;99.90;;;;;;5054691;28;20163;-71
2021/01/05 01:03:56;;;;;;;18.43;13.60;;;3.20;99.90;;;;;;5054340;28;20427;-71
2021/01/05 01:06:22;;;;;;;23.17;15.97;;;3.20;99.90;;;;;;5054792;28;20194;-71
2021/01/05 01:08:48;;;;;;;19.90;14.53;;;3.20;99.90;;;;;;5054929;28;20933;-71
2021/01/05 01:11:14;;;;;;;23.33;15.03;;;3.20;99.90;;;;;;5054762;28;20261;-71
2021/01/05 01:13:39;;;;;;;21.90;14.30;;;3.20;99.90;;;;;;5054116;28;20185;-71
2021/01/05 01:16:06;;;;;;;21.47;13.97;;;3.20;99.90;;;;;;5053954;28;20482;-71
2021/01/05 01:18:31;;;;;;;21.13;15.70;;;3.20;99.90;;;;;;5054627;28;20401;-71
2021/01/05 01:20:58;;;;;;;21.60;14.57;;;3.20;99.90;;;;;;5053885;28;20502;-71
2021/01/05 01:23:23;;;;;;;19.80;13.30;;;3.20;99.90;;;;;;5053860;28;20174;-71
2021/01/05 01:25:49;;;;;;;20.70;14.60;;;3.20;99.90;;;;;;5053744;28;20934;-71
2021/01/05 01:28:14;;;;;;;21.50;14.30;;;3.20;99.90;;;;;;5054006;28;20182;-71
2021/01/05 01:30:40;;;;;;;21.50;14.83;;;3.20;99.90;;;;;;5053832;28;20167;-71
2021/01/05 01:33:06;;;;;;;26.00;15.17;;;3.10;99.90;;;;;;5053852;28;20182;-70
2021/01/05 01:35:32;;;;;;;20.53;15.00;;;3.10;99.90;;;;;;5053765;28;20191;-70
2021/01/05 01:37:58;;;;;;;25.37;15.83;;;3.10;99.90;;;;;;5054161;28;20882;-70
2021/01/05 01:40:35;;;;;;;21.93;14.73;;;3.10;99.90;;;;;;5054211;28;20663;-72
2021/01/05 01:43:01;;;;;;;22.70;13.90;;;3.10;99.90;;;;;;5054668;28;20158;-72
2021/01/05 01:45:27;;;;;;;22.50;14.40;;;3.20;99.90;;;;;;5053943;28;20437;-70
2021/01/05 01:47:53;;;;;;;20.00;14.33;;;3.20;99.90;;;;;;5054174;28;20919;-72
2021/01/05 01:50:28;;;;;;;23.13;14.80;;;3.30;99.90;;;;;;5054135;28;20172;-72
2021/01/05 01:53:02;;;;;;;22.13;15.60;;;3.30;99.90;;;;;;5053838;28;20424;-72
2021/01/05 01:56:09;;;;;;;19.10;13.83;;;3.30;99.90;;;;;;5053546;28;20428;-72
2021/01/05 01:59:01;;;;;;;19.13;13.70;;;3.30;99.90;;;;;;5052208;28;20492;-72
2021/01/05 02:01:52;;;;;;;22.10;13.83;;;3.30;99.90;;;;;;5054117;28;20416;-72
2021/01/05 02:04:38;;;;;;;21.93;15.40;;;3.30;99.90;;;;;;5052218;28;20405;-72
2021/01/05 02:07:35;;;;;;;21.43;14.30;;;3.30;99.90;;;;;;5053549;28;20475;-72
2021/01/05 02:10:41;;;;;;;22.27;15.87;;;3.30;99.90;;;;;;5054024;28;20401;-72
2021/01/05 02:13:27;;;;;;;18.60;14.20;;;3.40;99.90;;;;;;5004227;28;20417;-72
2021/01/05 02:16:25;;;;;;;20.67;14.27;;;3.40;99.90;;;;;;5053517;28;20431;-71
2021/01/05 02:18:54;;;;;;;22.40;14.07;;;3.40;99.90;;;;;;5053731;28;20420;-72
2021/01/05 02:21:26;;;;;;;19.40;14.13;;;3.40;99.90;;;;;;5053062;28;20452;-72
2021/01/05 02:24:06;;;;;;;21.23;14.00;;;3.40;99.90;;;;;;5053734;28;20429;-71
2021/01/05 02:27:01;;;;;;;21.50;13.77;;;3.40;99.90;;;;;;5054026;28;20417;-71
2021/01/05 02:29:32;;;;;;;19.53;12.97;;;3.40;99.90;;;;;;4976692;28;21065;-71
2021/01/05 02:32:14;;;;;;;16.40;13.30;;;3.40;99.90;;;;;;4992569;28;20412;-71
2021/01/05 02:35:34;;;;;;;19.40;14.40;;;3.50;99.90;;;;;;5004074;28;20454;-71
2021/01/05 02:38:08;;;;;;;21.27;13.67;;;3.60;99.90;;;;;;4945128;29;20479;-71
2021/01/05 02:41:04;;;;;;;21.10;13.80;;;3.60;99.90;;;;;;4938655;29;20884;-71
2021/01/05 02:44:11;;;;;;;19.37;13.33;;;3.60;99.90;;;;;;4952238;29;20432;-71
2021/01/05 02:46:51;;;;;;;18.87;15.27;;;3.60;99.90;;;;;;4913814;29;20440;-71
2021/01/05 02:49:35;;;;;;;22.17;13.77;;;3.50;99.90;;;;;;4934437;29;20421;-70
2021/01/05 02:52:19;;;;;;;22.67;14.37;;;3.40;99.90;;;;;;4935054;29;20438;-70
2021/01/05 02:55:28;;;;;;;23.13;14.97;;;3.40;99.90;;;;;;4939001;29;20418;-70
2021/01/05 02:57:59;;;;;;;21.70;15.57;;;3.40;99.90;;;;;;4924000;29;20414;-70
2021/01/05 03:00:25;;;;;;;18.50;13.40;;;3.30;99.90;;;;;;4934131;29;20476;-70
2021/01/05 03:03:12;;;;;;;20.27;13.80;;;3.30;99.90;;;;;;4934182;29;20420;-71
2021/01/05 03:05:44;;;;;;;21.70;13.90;;;3.40;99.90;;;;;;4949401;28;20236;-71
2021/01/05 03:08:10;;;;;;;23.40;14.80;;;3.40;99.90;;;;;;4972558;28;20496;-71
2021/01/05 03:10:59;;;;;;;19.70;14.23;;;3.50;99.90;;;;;;4978381;28;20517;-71
2021/01/05 03:13:49;;;;;;;22.93;14.40;;;3.40;99.90;;;;;;5053224;28;20529;-71
2021/01/05 03:16:28;;;;;;;22.13;13.50;;;3.20;99.90;;;;;;5052968;28;20448;-71
2021/01/05 03:18:54;;;;;;;25.30;16.00;;;3.20;99.90;;;;;;5053583;28;20432;-71
2021/01/05 03:21:30;;;;;;;25.27;14.67;;;3.20;99.90;;;;;;5057799;28;20460;-70
2021/01/05 03:23:58;;;;;;;22.00;14.80;;;3.20;99.90;;;;;;5052906;28;20232;-71
2021/01/05 03:26:31;;;;;;;22.83;14.93;;;3.20;99.90;;;;;;5052663;28;20444;-71
2021/01/05 03:28:59;;;;;;;20.67;14.20;;;3.20;99.90;;;;;;5053036;28;20407;-71
2021/01/05 03:31:37;;;;;;;18.00;14.20;;;3.30;99.90;;;;;;5051656;28;20409;-71
2021/01/05 03:34:05;;;;;;;21.40;14.83;;;3.30;99.90;;;;;;5055861;28;20905;-71
2021/01/05 03:36:31;;;;;;;20.03;13.90;;;3.30;99.90;;;;;;5056433;28;20424;-71
2021/01/05 03:38:56;;;;;;;22.30;15.07;;;3.30;99.90;;;;;;5056552;28;20437;-71
2021/01/05 03:41:22;;;;;;;20.90;14.63;;;3.30;99.90;;;;;;5056484;28;20200;-71
2021/01/05 03:43:47;;;;;;;22.23;14.67;;;3.20;99.90;;;;;;5056445;28;20341;-71
2021/01/05 03:46:14;;;;;;;20.87;13.63;;;3.20;99.90;;;;;;5055837;28;20236;-72
2021/01/05 03:48:39;;;;;;;21.37;15.10;;;3.20;99.90;;;;;;5056027;28;20656;-71
2021/01/05 03:51:06;;;;;;;24.50;15.33;;;3.20;99.90;;;;;;5056370;28;20437;-72
2021/01/05 03:53:31;;;;;;;21.10;13.97;;;3.10;99.90;;;;;;5054615;28;20408;-71
2021/01/05 03:55:57;;;;;;;22.07;14.60;;;3.20;99.90;;;;;;5056187;28;20986;-71
2021/01/05 03:58:22;;;;;;;23.67;14.80;;;3.20;99.90;;;;;;5056234;28;20253;-71
2021/01/05 04:00:48;;;;;;;22.43;14.17;;;3.20;99.90;;;;;;5056312;28;20202;-71
2021/01/05 04:03:14;;;;;;;21.07;13.43;;;3.20;99.90;;;;;;5056123;28;20178;-72
2021/01/05 04:05:40;;;;;;;21.03;14.50;;;3.20;99.90;;;;;;5055866;28;20489;-71
2021/01/05 04:08:05;;;;;;;24.37;15.63;;;3.20;99.90;;;;;;5056127;28;20180;-72
2021/01/05 04:10:31;;;;;;;23.90;14.77;;;3.20;99.90;;;;;;5055958;28;20187;-72
2021/01/05 04:12:57;;;;;;;21.07;14.20;;;3.30;99.90;;;;;;5055595;28;20197;-71
2021/01/05 04:15:27;;;;;;;24.13;16.07;;;3.40;99.90;;;;;;5055164;28;20631;-71
2021/01/05 04:17:54;;;;;;;23.67;15.10;;;3.30;99.90;;;;;;5055660;28;20175;-71
2021/01/05 04:20:21;;;;;;;26.30;15.00;;;3.30;99.90;;;;;;5055468;28;20486;-72
2021/01/05 04:22:46;;;;;;;25.33;14.80;;;3.40;99.90;;;;;;5055863;28;20544;-71
2021/01/05 04:25:15;;;;;;;20.20;13.80;;;3.30;99.90;;;;;;5054575;28;20846;-72
2021/01/05 04:27:41;;;;;;;20.93;13.87;;;3.40;99.90;;;;;;5055547;28;20659;-72
2021/01/05 04:30:15;;;;;;;26.10;15.10;;;3.40;99.90;;;;;;5055578;28;20417;-72
2021/01/05 04:32:41;;;;;;;22.40;14.07;;;3.50;99.90;;;;;;5055836;28;20571;-71
2021/01/05 04:35:07;;;;;;;21.20;14.13;;;3.50;99.90;;;;;;5055053;28;20412;-71
2021/01/05 04:37:32;;;;;;;22.90;15.00;;;3.50;99.90;;;;;;5055101;28;20240;-71
2021/01/05 04:39:58;;;;;;;23.77;14.33;;;3.50;99.90;;;;;;5055217;28;20483;-71
2021/01/05 04:42:38;;;;;;;23.07;14.80;;;3.50;99.90;;;;;;5055484;28;20257;-71
2021/01/05 04:45:10;;;;;;;21.13;14.90;;;3.50;99.90;;;;;;5052934;28;20163;-71
2021/01/05 04:48:18;;;;;;;23.07;15.20;;;3.50;99.90;;;;;;5055882;28;20408;-71
2021/01/05 04:50:51;;;;;;;23.00;15.07;;;3.50;99.90;;;;;;5055030;28;20478;-71
2021/01/05 04:53:31;;;;;;;21.17;13.50;;;3.40;99.90;;;;;;5055147;28;20404;-71
2021/01/05 04:56:12;;;;;;;22.67;14.20;;;3.50;99.90;;;;;;5055098;28;20898;-71
2021/01/05 04:58:46;;;;;;;22.37;14.43;;;3.50;99.90;;;;;;5055271;28;20398;-71
2021/01/05 05:01:25;;;;;;;19.10;13.30;;;3.60;99.90;;;;;;5054824;28;20461;-72
2021/01/05 05:04:26;;;;;;;26.17;15.60;;;3.50;99.90;;;;;;5055008;28;20409;-71
2021/01/05 05:07:01;;;;;;;21.93;14.50;;;3.50;99.90;;;;;;5000822;28;20562;-71
2021/01/05 05:10:00;;;;;;;21.30;14.40;;;3.50;99.90;;;;;;5054150;28;20411;-71
2021/01/05 05:12:39;;;;;;;26.93;15.73;;;3.30;99.90;;;;;;5055341;28;20419;-71
2021/01/05 05:15:12;;;;;;;21.47;14.27;;;3.20;99.90;;;;;;5054327;28;20413;-71
2021/01/05 05:18:03;;;;;;;23.37;13.90;;;3.30;99.90;;;;;;5054661;28;20474;-71
2021/01/05 05:20:50;;;;;;;23.83;15.10;;;3.20;99.90;;;;;;5054571;28;20868;-71
2021/01/05 05:23:27;;;;;;;23.80;14.43;;;3.30;99.90;;;;;;5054546;28;20966;-71
2021/01/05 05:26:22;;;;;;;27.97;15.70;;;3.30;99.90;;;;;;5054023;28;20787;-71
2021/01/05 05:28:53;;;;;;;24.40;14.90;;;3.40;99.90;;;;;;5054638;28;20792;-70
2021/01/05 05:31:22;;;;;;;25.50;14.97;;;3.40;99.90;;;;;;5053371;28;20430;-70
2021/01/05 05:33:52;;;;;;;26.67;16.37;;;3.40;99.90;;;;;;5053783;28;20428;-71
2021/01/05 05:37:02;;;;;;;20.57;13.90;;;3.40;99.90;;;;;;5053522;28;20539;-71
2021/01/05 05:39:59;;;;;;;19.73;13.23;;;3.30;99.90;;;;;;4992403;28;20475;-71
2021/01/05 05:42:48;;;;;;;22.13;13.43;;;3.40;99.90;;;;;;4992857;28;20439;-71
2021/01/05 05:45:24;;;;;;;26.10;15.67;;;3.40;99.90;;;;;;4992498;28;20385;-71
2021/01/05 05:48:05;;;;;;;25.40;16.00;;;3.40;99.90;;;;;;4993066;28;20550;-71
2021/01/05 05:50:58;;;;;;;27.80;15.60;;;3.40;99.90;;;;;;4992034;28;20427;-71
2021/01/05 05:53:28;;;;;;;27.00;14.27;;;3.40;99.90;;;;;;4992756;28;20411;-71
2021/01/05 05:56:16;;;;;;;24.70;14.93;;;3.40;99.90;;;;;;4991410;28;20433;-71
2021/01/05 05:58:48;;;;;;;27.33;16.50;;;3.40;99.90;;;;;;4992542;28;20516;-71
2021/01/05 06:01:27;;;;;;;26.17;15.80;;;3.30;99.90;;;;;;4992662;28;20494;-71
2021/01/05 06:03:53;;;;;;;27.70;16.80;;;3.20;99.90;;;;;;4992609;28;20425;-71
2021/01/05 06:06:20;;;;;;;28.83;15.73;;;3.20;99.90;;;;;;4992628;28;20451;-71
2021/01/05 06:08:46;;;;;;;29.40;17.70;;;3.20;99.90;;;;;;4992895;28;20462;-71
2021/01/05 06:11:11;;;;;;;27.33;16.43;;;3.20;99.90;;;;;;5002827;28;20424;-71
2021/01/05 06:13:37;;;;;;;21.53;14.40;;;3.30;99.90;;;;;;5047467;28;20197;-71
2021/01/05 06:16:02;;;;;;;27.57;16.53;;;3.40;99.90;;;;;;5072514;28;20192;-71
2021/01/05 06:18:28;;;;;;;26.23;17.60;;;3.40;99.90;;;;;;5073049;28;20200;-72
2021/01/05 06:20:53;;;;;;;26.60;16.23;;;3.50;99.90;;;;;;5073240;28;20203;-72
2021/01/05 06:23:19;;;;;;;27.77;16.30;;;3.40;99.90;;;;;;5070780;28;20230;-71
2021/01/05 06:25:46;;;;;;;23.30;16.40;;;3.30;99.90;;;;;;5052976;28;20197;-71
2021/01/05 06:28:11;;;;;;;25.03;15.50;;;3.30;99.90;;;;;;5053318;28;20170;-72
2021/01/05 06:30:37;;;;;;;24.23;15.40;;;3.40;99.90;;;;;;5053175;28;20504;-71
2021/01/05 06:33:03;;;;;;;26.93;15.40;;;3.30;99.90;;;;;;5053532;28;20240;-71
2021/01/05 06:35:28;;;;;;;30.17;16.30;;;3.20;99.90;;;;;;5052798;28;20211;-71
2021/01/05 06:37:54;;;;;;;25.13;15.60;;;3.30;99.90;;;;;;5053861;28;20559;-71
2021/01/05 06:40:23;;;;;;;24.33;15.57;;;3.30;99.90;;;;;;5055031;28;20285;-71
2021/01/05 06:42:49;;;;;;;27.53;16.07;;;3.30;99.90;;;;;;5059521;28;20659;-71
2021/01/05 06:45:24;;;;;;;28.43;16.70;;;3.30;99.90;;;;;;5053263;28;20409;-71
2021/01/05 06:47:50;;;;;;;27.63;16.37;;;3.30;99.90;;;;;;5053426;28;20402;-72
2021/01/05 06:50:17;;;;;;;27.40;16.63;;;3.30;99.90;;;;;;5052823;28;20556;-72
2021/01/05 06:52:42;;;;;;;24.87;15.43;;;3.40;99.90;;;;;;5052026;28;20174;-71
2021/01/05 06:55:09;;;;;;;25.47;16.20;;;3.40;99.90;;;;;;5051794;28;20462;-71
2021/01/05 06:57:34;;;;;;;24.83;14.77;;;3.40;99.90;;;;;;5052787;28;20787;-71
2021/01/05 07:00:00;;;;;;;29.67;17.20;;;3.40;99.90;;;;;;5052847;28;20538;-71
2021/01/05 07:02:26;;;;;;;26.67;16.10;;;3.40;99.90;;;;;;5052956;28;20162;-71
2021/01/05 07:04:51;;;;;;;25.33;16.20;;;3.40;99.90;;;;;;5052316;28;20169;-71
2021/01/05 07:07:17;;;;;;;30.07;15.50;;;3.30;99.90;;;;;;5053647;28;20197;-70
2021/01/05 07:09:42;;;;;;;27.73;15.53;;;3.30;99.90;;;;;;5057000;28;20168;-70
2021/01/05 07:12:08;;;;;;;24.93;15.07;;;3.30;99.90;;;;;;5057052;28;20218;-70
2021/01/05 07:14:34;;;;;;;29.57;15.50;;;3.40;99.90;;;;;;5056765;28;20228;-71
2021/01/05 07:16:59;;;;;;;23.70;14.93;;;3.40;99.90;;;;;;5056921;28;20456;-71
2021/01/05 07:19:25;;;;;;;27.57;16.23;;;3.50;99.90;;;;;;5055400;28;20180;-71
2021/01/05 07:21:50;;;;;;;26.60;16.43;;;3.50;99.90;;;;;;5056426;28;20253;-70
2021/01/05 07:24:16;;;;;;;25.27;16.13;;;3.50;99.90;;;;;;5056311;28;20172;-71
2021/01/05 07:26:48;;;;;;;24.43;14.90;;;3.50;99.90;;;;;;5056132;28;20204;-70
2021/01/05 07:29:20;;;;;;;29.03;17.43;;;3.60;99.90;;;;;;5056598;28;20179;-71
2021/01/05 07:31:49;;;;;;;24.23;14.93;;;3.60;99.90;;;;;;5056238;28;20402;-71
2021/01/05 07:34:15;;;;;;;25.10;17.20;;;3.50;99.90;;;;;;5055811;28;20459;-70
2021/01/05 07:36:48;;;;;;;25.53;14.73;;;3.30;99.90;;;;;;5056273;28;20419;-71
2021/01/05 07:39:20;;;;;;;25.30;15.13;;;3.20;99.90;;;;;;5055941;28;20931;-70
2021/01/05 07:41:47;;;;;;;27.13;16.00;;;3.30;99.90;;;;;;5056305;28;20396;-71
2021/01/05 07:44:13;;;;;;;28.30;16.70;;;3.40;99.90;;;;;;5056013;28;20443;-70
2021/01/05 07:46:38;;;;;;;29.30;15.87;;;3.30;99.90;;;;;;5056005;28;20428;-70
2021/01/05 07:49:04;;;;;;;27.97;17.13;;;3.20;99.90;;;;;;5057049;28;20182;-70
2021/01/05 07:51:29;;;;;;;27.30;16.57;;;3.10;99.90;;;;;;5056853;28;20181;-70
2021/01/05 07:53:55;;;;;;;26.13;15.80;;;3.10;99.90;;;;;;5055178;28;20185;-71
2021/01/05 07:56:20;;;;;;;27.80;18.00;;;3.20;99.90;;;;;;5056978;28;20600;-70
2021/01/05 07:58:46;;;;;;;34.33;19.33;;;3.20;99.90;;;;;;5056949;28;20616;-70
2021/01/05 08:01:11;;;;;;;29.13;16.50;;;3.30;99.90;;;;;;5056788;28;20231;-70
2021/01/05 08:03:37;;;;;;;29.87;16.33;;;3.30;99.90;;;;;;5056646;28;20176;-71
2021/01/05 08:06:06;;;;;;;27.87;17.37;;;3.30;99.90;;;;;;5056738;28;20205;-71
2021/01/05 08:08:32;;;;;;;30.20;16.00;;;3.20;99.90;;;;;;5056652;28;20170;-70
2021/01/05 08:10:57;;;;;;;28.23;15.87;;;3.10;99.90;;;;;;5054251;28;20534;-70
2021/01/05 08:13:23;;;;;;;29.77;16.10;;;3.10;99.90;;;;;;5048926;28;20174;-71
2021/01/05 08:15:49;;;;;;;29.00;17.47;;;3.10;99.90;;;;;;5054198;28;20202;-71
2021/01/05 08:18:15;;;;;;;27.13;16.13;;;3.20;99.90;;;;;;5055036;28;20177;-71
2021/01/05 08:20:40;;;;;;;26.80;15.73;;;3.20;99.90;;;;;;5056093;28;20225;-71
2021/01/05 08:23:06;;;;;;;23.07;15.23;;;3.40;99.90;;;;;;5057337;28;20659;-71
2021/01/05 08:25:35;;;;;;;25.43;14.90;;;3.40;99.90;;;;;;5057014;28;20721;-71
2021/01/05 08:28:01;;;;;;;29.10;16.50;;;3.40;99.90;;;;;;5037312;28;20268;-71
2021/01/05 08:30:32;;;;;;;29.60;16.70;;;3.50;99.90;;;;;;5033361;28;20423;-71
2021/01/05 08:33:09;;;;;;;25.47;15.60;;;3.50;99.90;;;;;;5036603;28;20536;-71
2021/01/05 08:35:35;;;;;;;27.50;16.40;;;3.40;99.90;;;;;;5035437;28;20520;-72
2021/01/05 08:38:01;;;;;;;28.97;16.83;;;3.40;99.90;;;;;;5033410;28;20456;-71
2021/01/05 08:40:30;;;;;;;28.80;17.03;;;3.50;99.90;;;;;;5036500;28;21034;-72
2021/01/05 08:42:57;;;;;;;28.57;16.30;;;3.60;99.90;;;;;;5035800;28;20168;-71
2021/01/05 08:45:23;;;;;;;28.30;15.67;;;3.60;99.90;;;;;;5034602;28;20417;-72
2021/01/05 08:47:48;;;;;;;26.90;15.70;;;3.60;99.90;;;;;;5033338;28;20426;-71
2021/01/05 08:50:18;;;;;;;31.93;16.90;;;3.60;99.90;;;;;;5033491;28;20180;-72
2021/01/05 08:52:44;;;;;;;21.77;13.83;;;3.50;99.90;;;;;;5033093;28;20178;-71
2021/01/05 08:55:10;;;;;;;28.10;15.00;;;3.60;99.90;;;;;;5034501;28;20424;-71
2021/01/05 08:57:35;;;;;;;26.00;14.70;;;3.60;99.90;;;;;;5034744;28;20635;-71
2021/01/05 09:00:01;;;;;;;28.57;15.97;;;3.50;99.90;;;;;;5031183;28;20458;-72
2021/01/05 09:02:27;;;;;;;25.37;16.20;;;3.40;99.90;;;;;;5034775;28;20179;-72
2021/01/05 09:04:52;;;;;;;30.33;15.07;;;3.40;99.90;;;;;;5034446;28;20398;-71
2021/01/05 09:07:20;;;;;;;30.13;15.90;;;3.50;99.90;;;;;;5034209;28;20200;-71
2021/01/05 09:09:45;;;;;;;31.50;16.03;;;3.60;99.90;;;;;;5031539;28;20173;-72
2021/01/05 09:12:11;;;;;;;26.67;16.17;;;3.60;99.90;;;;;;5033088;28;20521;-72
2021/01/05 09:14:36;;;;;;;28.70;16.83;;;3.70;99.90;;;;;;5034108;28;20187;-72
2021/01/05 09:17:02;;;;;;;26.60;16.40;;;3.70;99.90;;;;;;5034252;28;20203;-73
2021/01/05 09:19:29;;;;;;;30.40;17.00;;;3.70;99.90;;;;;;5034019;28;20182;-72
2021/01/05 09:21:55;;;;;;;28.30;16.30;;;3.70;99.90;;;;;;5033991;28;20194;-71
2021/01/05 09:24:21;;;;;;;23.40;15.43;;;3.70;99.90;;;;;;5033862;28;20410;-72
2021/01/05 09:26:55;;;;;;;28.90;16.63;;;3.80;99.90;;;;;;5033008;28;20458;-71
2021/01/05 09:29:23;;;;;;;34.00;17.90;;;3.60;99.90;;;;;;5034585;28;20890;-71
2021/01/05 09:31:50;;;;;;;28.30;16.43;;;3.50;99.90;;;;;;5032942;28;20429;-71
2021/01/05 09:34:18;;;;;;;23.33;14.80;;;3.50;99.90;;;;;;5033028;28;20430;-72
2021/01/05 09:36:43;;;;;;;28.30;16.90;;;3.50;99.90;;;;;;5038629;28;20450;-72
2021/01/05 09:39:12;;;;;;;25.83;16.57;;;3.40;99.90;;;;;;5040795;28;20415;-72
2021/01/05 09:41:46;;;;;;;26.60;15.90;;;3.50;99.90;;;;;;5034370;28;20200;-72
2021/01/05 09:44:12;;;;;;;24.03;15.17;;;3.50;99.90;;;;;;5034754;28;20519;-72
2021/01/05 09:46:39;;;;;;;27.57;14.23;;;3.60;99.90;;;;;;5039697;28;20456;-72
2021/01/05 09:49:12;;;;;;;22.90;15.07;;;3.50;99.90;;;;;;5056014;28;20469;-72
2021/01/05 09:51:38;;;;;;;27.17;14.23;;;3.60;99.90;;;;;;5045253;28;20418;-72
2021/01/05 09:54:03;;;;;;;27.77;14.70;;;3.60;99.90;;;;;;5043590;28;20817;-72
2021/01/05 09:56:29;;;;;;;25.17;14.70;;;3.60;99.90;;;;;;5052546;28;20505;-73
2021/01/05 09:58:54;;;;;;;25.87;15.70;;;3.70;99.90;;;;;;5054377;28;20266;-72
2021/01/05 10:01:28;;;;;;;21.77;14.33;;;3.70;99.90;;;;;;5049798;28;20229;-71
2021/01/05 10:03:54;;;;;;;26.70;15.70;;;3.80;99.90;;;;;;5053781;28;20166;-72
2021/01/05 10:06:22;;;;;;;27.50;14.73;;;3.90;99.90;;;;;;5036483;28;20831;-71
2021/01/05 10:08:47;;;;;;;26.20;14.30;;;3.90;99.90;;;;;;5049436;28;20189;-71
2021/01/05 10:11:13;;;;;;;22.23;14.57;;;3.90;99.90;;;;;;5032053;28;20927;-71
2021/01/05 10:13:39;;;;;;;25.73;16.07;;;3.90;99.90;;;;;;5033474;28;20422;-71
2021/01/05 10:16:04;;;;;;;28.00;15.70;;;4.00;99.90;;;;;;5033140;28;20199;-71
2021/01/05 10:18:30;;;;;;;27.67;16.53;;;4.00;99.90;;;;;;5033855;28;20179;-71
2021/01/05 10:20:55;;;;;;;27.20;15.90;;;4.10;99.90;;;;;;5032854;28;20486;-71
2021/01/05 10:23:21;;;;;;;29.53;16.13;;;4.00;99.90;;;;;;5029863;28;20181;-71
2021/01/05 10:25:47;;;;;;;25.87;16.43;;;4.00;99.90;;;;;;5032796;28;20208;-71
2021/01/05 10:28:13;;;;;;;26.17;16.00;;;4.10;99.90;;;;;;5033213;28;20177;-71
2021/01/05 10:30:39;;;;;;;28.47;17.17;;;4.10;99.90;;;;;;5031272;28;20764;-71
2021/01/05 10:33:05;;;;;;;27.67;16.67;;;4.10;99.90;;;;;;5032808;28;20514;-71
2021/01/05 10:35:30;;;;;;;27.47;16.60;;;4.10;99.90;;;;;;5032753;28;20280;-71
2021/01/05 10:37:56;;;;;;;28.97;17.50;;;4.00;99.90;;;;;;5033142;28;20180;-71
2021/01/05 10:40:21;;;;;;;30.23;17.20;;;4.00;99.90;;;;;;5032686;28;20611;-71
2021/01/05 10:42:49;;;;;;;29.50;16.50;;;3.70;99.90;;;;;;5032145;28;20188;-71
2021/01/05 10:45:20;;;;;;;27.27;16.23;;;3.80;99.90;;;;;;5032472;28;20179;-71
2021/01/05 10:47:46;;;;;;;27.50;16.90;;;3.70;99.90;;;;;;5032960;28;20427;-72
2021/01/05 10:50:17;;;;;;;25.50;16.87;;;3.70;99.90;;;;;;5032840;28;20813;-72
2021/01/05 10:52:45;;;;;;;26.27;15.63;;;3.80;99.90;;;;;;5032945;28;20419;-72
2021/01/05 10:55:12;;;;;;;27.27;17.50;;;3.70;99.90;;;;;;5032496;28;20423;-72
2021/01/05 10:57:37;;;;;;;31.23;18.33;;;3.70;99.90;;;;;;5033063;28;20418;-72
2021/01/05 11:00:04;;;;;;;23.23;15.80;;;3.70;99.90;;;;;;5032786;28;20871;-72
2021/01/05 11:02:30;;;;;;;28.20;16.03;;;3.70;99.90;;;;;;5031133;28;20244;-72
2021/01/05 11:04:55;;;;;;;28.90;17.80;;;3.80;99.90;;;;;;5032221;28;20422;-72
2021/01/05 11:07:21;;;;;;;30.07;16.53;;;3.80;99.90;;;;;;5033082;28;20208;-72
2021/01/05 11:09:46;;;;;;;28.20;17.27;;;3.80;99.90;;;;;;5032840;28;20600;-72
2021/01/05 11:12:18;;;;;;;23.03;14.57;;;3.90;99.90;;;;;;5031472;28;20186;-72
2021/01/05 11:14:44;;;;;;;24.13;16.97;;;4.00;99.90;;;;;;5030128;28;20168;-72
2021/01/05 11:17:10;;;;;;;26.70;14.73;;;4.00;99.90;;;;;;5031813;28;20458;-71
2021/01/05 11:19:36;;;;;;;27.90;16.40;;;4.10;99.90;;;;;;5030584;28;20301;-71
2021/01/05 11:22:05;;;;;;;25.97;15.23;;;4.10;99.90;;;;;;5030773;28;20260;-71
2021/01/05 11:24:34;;;;;;;27.00;16.00;;;4.10;99.90;;;;;;5028829;28;20444;-72
2021/01/05 11:27:00;;;;;;;24.67;15.30;;;4.20;99.90;;;;;;5029294;28;20439;-72
2021/01/05 11:29:26;;;;;;;24.73;15.93;;;4.20;99.90;;;;;;5029194;28;20414;-72
2021/01/05 11:32:05;;;;;;;24.37;16.77;;;4.20;99.90;;;;;;5027764;28;20180;-71
2021/01/05 11:34:31;;;;;;;27.33;17.40;;;4.00;99.90;;;;;;5031905;28;20437;-72
2021/01/05 11:37:04;;;;;;;28.77;18.33;;;3.90;99.90;;;;;;5032902;28;20434;-71
2021/01/05 11:39:30;;;;;;;24.13;16.30;;;4.00;99.90;;;;;;5032523;28;20437;-71
2021/01/05 11:42:00;;;;;;;29.73;16.43;;;4.10;99.90;;;;;;5032537;28;20414;-71
2021/01/05 11:44:28;;;;;;;24.93;16.00;;;4.00;99.90;;;;;;5032071;28;20426;-72
2021/01/05 11:46:54;;;;;;;25.70;16.17;;;3.90;99.90;;;;;;5031869;28;20460;-72
2021/01/05 11:49:20;;;;;;;27.57;18.47;;;3.90;99.90;;;;;;5032753;28;20489;-73
2021/01/05 11:51:50;;;;;;;30.10;16.77;;;3.90;99.90;;;;;;5031573;28;20893;-72
2021/01/05 11:54:16;;;;;;;27.27;16.40;;;4.00;99.90;;;;;;5033476;28;20171;-72
2021/01/05 11:56:41;;;;;;;31.80;18.93;;;4.00;99.90;;;;;;5036016;28;20526;-71
2021/01/05 11:59:07;;;;;;;29.27;16.77;;;3.90;99.90;;;;;;5036122;28;20168;-71
2021/01/05 12:01:37;;;;;;;28.30;18.40;;;4.00;99.90;;;;;;5036008;28;20700;-72
2021/01/05 12:04:09;;;;;;;27.53;16.93;;;4.00;99.90;;;;;;5035642;28;20173;-72
2021/01/05 12:06:34;;;;;;;28.33;18.50;;;4.00;99.90;;;;;;5036972;28;20426;-72
2021/01/05 12:09:00;;;;;;;25.67;15.90;;;4.10;99.90;;;;;;5037235;28;20959;-72
2021/01/05 12:11:29;;;;;;;23.40;16.60;;;4.10;99.90;;;;;;5037988;28;20203;-72
2021/01/05 12:13:55;;;;;;;27.00;16.90;;;4.10;99.90;;;;;;5034104;28;20510;-72
2021/01/05 12:16:28;;;;;;;28.50;17.17;;;4.10;99.90;;;;;;5035435;28;20453;-72
2021/01/05 12:18:55;;;;;;;25.37;15.73;;;3.90;99.90;;;;;;5033771;28;20892;-71
2021/01/05 12:21:22;;;;;;;30.47;17.70;;;3.70;99.90;;;;;;5035435;28;20496;-73
2021/01/05 12:23:48;;;;;;;29.80;17.00;;;3.60;99.90;;;;;;5036431;28;20416;-72
2021/01/05 12:26:21;;;;;;;27.60;17.37;;;3.70;99.90;;;;;;5035488;28;20433;-72
2021/01/05 12:28:47;;;;;;;28.40;17.13;;;3.80;99.90;;;;;;5019781;28;20254;-72
2021/01/05 12:31:12;;;;;;;24.53;15.27;;;3.80;99.90;;;;;;5035654;28;20438;-72
2021/01/05 12:33:38;;;;;;;27.40;17.93;;;3.80;99.90;;;;;;5035359;28;20199;-72
2021/01/05 12:36:04;;;;;;;27.43;16.63;;;3.90;99.90;;;;;;5035193;28;20201;-73
2021/01/05 12:38:30;;;;;;;30.87;18.77;;;3.80;99.90;;;;;;5035634;28;20253;-74
2021/01/05 12:40:55;;;;;;;28.50;17.30;;;3.80;99.90;;;;;;5034952;28;20463;-72
2021/01/05 12:43:21;;;;;;;32.73;17.90;;;3.90;99.90;;;;;;5036087;28;20209;-72
2021/01/05 12:45:47;;;;;;;27.40;17.17;;;3.90;99.90;;;;;;5034043;28;20214;-72
2021/01/05 12:48:12;;;;;;;27.37;17.63;;;4.00;99.90;;;;;;5033843;28;20187;-72
2021/01/05 12:50:38;;;;;;;30.00;17.83;;;4.00;99.90;;;;;;5035067;28;20199;-72